Data for 03/14/2006

Time Sea-Level Adjusted Pressure Absolute Pressure Temperature Relative Humidity Dew Point   
(mb) (inHg) (mb) (inHg) (C) (F) (%) (C) (F)
00:05 1015 29.97 844 24.92 -5.3 22.5 51 -13.9 7
00:10 1015 29.97 844 24.92 -5.4 22.3 51 -14.1 6.6
00:15 1015 29.97 844 24.92 -5.3 22.5 50 -14.1 6.5
00:20 1015 29.97 844 24.92 -5.2 22.6 50 -14.2 6.5
00:25 1015 29.97 844 24.92 -5.3 22.5 48 -14.7 5.5
00:30 1015 29.97 844 24.92 -4.7 23.6 45 -14.8 5.3
00:35 1015 29.97 844 24.92 -4.4 24.1 44 -15 5
00:40 1015 29.97 844 24.92 -4 24.9 42 -15 5
00:45 1015 29.97 844 24.92 -3.6 25.5 39 -15.5 4
00:50 1015 29.97 844 24.92 -2.8 27 38 -15.2 4.6
00:55 1015 29.97 844 24.92 -3.1 26.5 38 -15.5 4.1
01:00 1015 29.97 844 24.92 -3.6 25.6 41 -15.1 4.9
01:05 1015 29.97 844 24.92 -3.7 25.3 43 -14.7 5.6
01:10 1015 29.97 844 24.92 -4.2 24.5 44 -14.8 5.4
01:15 1015 29.97 844 24.92 -4.5 24 43 -15.1 4.8
01:20 1015 29.97 844 24.92 -4 24.8 42 -15.1 4.8
01:25 1015 29.97 844 24.92 -4.1 24.6 43 -15 5.1
01:30 1015 29.97 844 24.92 -4.1 24.7 42 -15.1 4.8
01:35 1015 29.97 844 24.92 -3.9 25 43 -14.6 5.7
01:40 1015 29.97 844 24.92 -4.1 24.7 44 -14.5 5.9
01:45 1015 29.97 844 24.92 -4.3 24.3 45 -14.4 6
01:50 1015 29.97 844 24.92 -4.5 23.9 46 -14.5 5.8
01:55 1015 29.97 844 24.92 -4.8 23.3 49 -14.1 6.7
02:00 1015 29.97 844 24.92 -5.4 22.3 50 -14.4 6.1
02:05 1015 29.97 844 24.92 -5.5 22.1 49 -14.6 5.8
02:10 1015 29.97 844 24.92 -5.3 22.5 48 -14.7 5.5
02:15 1015 29.97 844 24.92 -5.3 22.5 48 -14.6 5.7
02:20 1015 29.97 844 24.92 -5.3 22.4 48 -14.7 5.6
02:25 1015 29.97 844 24.92 -5.1 22.8 45 -15.2 4.6
02:30 1015 29.97 844 24.92 -4.9 23.2 46 -14.9 5.2
02:35 1015 29.97 844 24.92 -5.5 22 49 -14.6 5.7
02:40 1015 29.97 844 24.92 -6.3 20.6 53 -14.4 6
02:45 1014 29.94 844 24.92 -6.8 19.7 52 -15 5
02:50 1014 29.94 844 24.92 -6.9 19.6 53 -15 5.1
02:55 1014 29.94 844 24.92 -7.1 19.3 52 -15.2 4.6
03:00 1015 29.97 844 24.92 -6.9 19.5 52 -15.3 4.5
03:05 1015 29.97 844 24.92 -6.8 19.7 52 -15.2 4.6
03:10 1014 29.94 844 24.92 -6.7 19.9 50 -15.4 4.2
03:15 1014 29.94 844 24.92 -6.6 20.1 51 -15.3 4.5
03:20 1014 29.94 844 24.92 -6.7 19.9 51 -15.3 4.4
03:25 1014 29.94 843 24.89 -6.6 20 50 -15.3 4.4
03:30 1014 29.94 843 24.89 -6.7 20 51 -15.2 4.6
03:35 1014 29.94 843 24.89 -6.7 20 51 -15.3 4.5
03:40 1014 29.94 843 24.89 -6.6 20.1 51 -15.2 4.6
03:45 1014 29.94 843 24.89 -6.6 20 51 -15.2 4.7
03:50 1014 29.94 843 24.89 -6.7 19.9 52 -15 4.9
03:55 1014 29.94 843 24.89 -6.7 19.9 51 -15.2 4.7
04:00 1014 29.94 843 24.89 -6.4 20.5 49 -15.3 4.4
04:05 1014 29.94 843 24.89 -6.2 20.8 50 -15 5
04:10 1014 29.94 843 24.89 -6.3 20.6 51 -14.9 5.1
04:15 1014 29.94 843 24.89 -6.3 20.6 51 -15 5
04:20 1014 29.94 843 24.89 -6.3 20.7 51 -14.9 5.2
04:25 1014 29.94 843 24.89 -6.2 20.8 50 -14.9 5.1
04:30 1014 29.94 843 24.89 -6.1 21.1 50 -14.8 5.3
04:35 1014 29.94 843 24.89 -5.9 21.3 49 -15 5
04:40 1014 29.94 843 24.89 -5.7 21.7 48 -15.1 4.7
04:45 1014 29.94 843 24.89 -5.8 21.6 48 -15 4.9
04:50 1014 29.94 843 24.89 -5.8 21.5 48 -15.1 4.9
04:55 1014 29.94 843 24.89 -5.9 21.3 49 -14.9 5.1
05:00 1014 29.94 843 24.89 -5.9 21.4 49 -15.1 4.9
05:05 1014 29.94 843 24.89 -5.9 21.5 49 -15 5
05:10 1014 29.94 843 24.89 -5.9 21.3 49 -15.1 4.9
05:15 1014 29.94 843 24.89 -5.9 21.4 49 -15 5
05:20 1014 29.94 843 24.89 -5.9 21.4 50 -14.8 5.3
05:25 1014 29.94 843 24.89 -5.9 21.3 50 -14.8 5.4
05:30 1014 29.94 843 24.89 -5.9 21.3 51 -14.6 5.6
05:35 1013 29.91 843 24.89 -6.2 20.9 51 -14.6 5.7
05:40 1013 29.91 843 24.89 -6.2 20.8 52 -14.6 5.6
05:45 1013 29.91 843 24.89 -6.3 20.6 52 -14.7 5.6
05:50 1013 29.91 843 24.89 -6.4 20.5 52 -14.7 5.5
05:55 1013 29.91 843 24.89 -6.5 20.4 52 -14.8 5.4
06:00 1013 29.91 842 24.86 -6.4 20.4 51 -14.9 5.2
06:05 1013 29.91 842 24.86 -6.2 20.8 51 -14.9 5.2
06:10 1013 29.91 842 24.86 -6.1 20.9 50 -15 5
06:15 1013 29.91 842 24.86 -6 21.2 49 -15.1 4.9
06:20 1013 29.91 842 24.86 -5.8 21.5 49 -15 5
06:25 1013 29.91 842 24.86 -6 21.2 49 -15 5.1
06:30 1013 29.91 842 24.86 -6.3 20.7 51 -14.9 5.2
06:35 1013 29.91 842 24.86 -6.4 20.5 51 -14.9 5.2
06:40 1013 29.91 842 24.86 -6.2 20.8 51 -14.9 5.3
06:45 1013 29.91 842 24.86 -6.2 20.8 51 -14.7 5.5
06:50 1013 29.91 842 24.86 -6.2 20.9 51 -14.6 5.6
06:55 1013 29.91 842 24.86 -6.1 20.9 52 -14.6 5.8
07:00 1013 29.91 842 24.86 -6.1 21 52 -14.6 5.7
07:05 1013 29.91 842 24.86 -5.8 21.6 50 -14.6 5.7
07:10 1013 29.91 842 24.86 -5.7 21.7 50 -14.5 6
07:15 1013 29.91 842 24.86 -5.7 21.7 51 -14.4 6
07:20 1013 29.91 842 24.86 -5.4 22.2 49 -14.5 5.9
07:25 1013 29.91 842 24.86 -5.1 22.9 47 -14.6 5.7
07:30 1013 29.91 842 24.86 -4.9 23.1 48 -14.4 6.1
07:35 1013 29.91 842 24.86 -4.9 23.2 48 -14.2 6.4
07:40 1013 29.91 842 24.86 -4.9 23.3 48 -14.2 6.4
07:45 1013 29.91 842 24.86 -4.8 23.4 49 -14 6.7
07:50 1013 29.91 842 24.86 -4.8 23.4 48 -14.1 6.6
07:55 1013 29.91 842 24.86 -4.8 23.4 48 -14.2 6.5
08:00 1013 29.91 842 24.86 -4.7 23.6 48 -14.2 6.5
08:05 1013 29.91 842 24.86 -4.4 24.1 48 -13.8 7.1
08:10 1013 29.91 842 24.86 -4.2 24.4 47 -14 6.9
08:15 1013 29.91 842 24.86 -4.2 24.4 47 -13.9 6.9
08:20 1013 29.91 842 24.86 -4.1 24.6 47 -13.9 7
08:25 1013 29.91 842 24.86 -4.1 24.6 46 -14 6.8
08:30 1013 29.91 842 24.86 -3.9 25 46 -13.8 7.1
08:35 1013 29.91 842 24.86 -3.7 25.4 46 -13.7 7.3
08:40 1013 29.91 842 24.86 -3.4 25.9 45 -13.7 7.3
08:45 1013 29.91 842 24.86 -3.2 26.3 44 -13.8 7.2
08:50 1013 29.91 842 24.86 -3 26.5 44 -13.6 7.6
08:55 1013 29.91 842 24.86 -2.9 26.8 43 -13.7 7.3
09:00 1013 29.91 842 24.86 -2.3 27.8 42 -13.5 7.7
09:05 1013 29.91 842 24.86 -2.4 27.6 43 -13.4 7.9
09:10 1013 29.91 842 24.86 -2.3 27.9 42 -13.6 7.5
09:15 1013 29.91 842 24.86 -2 28.4 41 -13.6 7.5
09:20 1012 29.88 842 24.86 -1.8 28.7 42 -13.3 8.1
09:25 1012 29.88 842 24.86 -1.9 28.7 42 -13.3 8.1
09:30 1012 29.88 842 24.86 -1.7 28.9 41 -13.2 8.3
09:35 1012 29.88 842 24.86 -1.6 29.2 41 -13.3 8.1
09:40 1012 29.88 842 24.86 -1.3 29.7 40 -13.4 8
09:45 1012 29.88 842 24.86 -1 30.2 39 -13.3 8.1
09:50 1012 29.88 842 24.86 -0.9 30.4 39 -13.3 8
09:55 1012 29.88 842 24.86 -0.8 30.5 39 -13.3 8.1
10:00 1012 29.88 842 24.86 -0.7 30.8 38 -13.3 8
10:05 1012 29.88 842 24.86 -0.5 31 37 -13.4 7.9
10:10 1012 29.88 841 24.83 -0.2 31.6 36 -13.5 7.8
10:15 1012 29.88 841 24.83 0.1 32.2 35 -13.6 7.6
10:20 1012 29.88 841 24.83 0.3 32.6 34 -13.6 7.5
10:25 1012 29.88 841 24.83 1.1 34 34 -13.1 8.3
10:30 1012 29.88 841 24.83 1.4 34.4 33 -13.2 8.2
10:35 1012 29.88 841 24.83 1.6 34.9 33 -13.1 8.4
10:40 1012 29.88 841 24.83 1.6 34.8 32 -13.4 7.9
10:45 1012 29.88 841 24.83 1.4 34.5 33 -13.3 8.1
10:50 1012 29.88 841 24.83 1.3 34.4 33 -13.3 8
10:55 1012 29.88 841 24.83 2 35.6 32 -13.1 8.3
11:00 1012 29.88 841 24.83 2.4 36.4 31 -12.9 8.8
11:05 1012 29.88 841 24.83 2.2 36 32 -12.9 8.8
11:10 1012 29.88 841 24.83 2.4 36.4 31 -13 8.6
11:15 1012 29.88 841 24.83 2.4 36.3 31 -13.1 8.5
11:20 1011 29.85 841 24.83 2.8 37 30 -13 8.6
11:25 1011 29.85 841 24.83 3.2 37.7 30 -12.7 9.1
11:30 1011 29.85 840 24.81 3.3 37.9 30 -12.7 9.1
11:35 1011 29.85 840 24.81 3.2 37.7 31 -12.5 9.6
11:40 1011 29.85 840 24.81 2.7 36.9 31 -12.8 9
11:45 1011 29.85 840 24.81 2.9 37.3 31 -12.6 9.4
11:50 1011 29.85 840 24.81 3.1 37.5 31 -12.6 9.2
11:55 1011 29.85 840 24.81 3.3 38 31 -12.4 9.7
12:00 1011 29.85 840 24.81 3.2 37.8 31 -12.5 9.6
12:05 1011 29.85 840 24.81 3.3 38 30 -12.6 9.4
12:10 1011 29.85 840 24.81 3.4 38.1 31 -12.4 9.7
12:15 1011 29.85 840 24.81 3.6 38.5 30 -12.5 9.5
12:20 1011 29.85 840 24.81 4.3 39.7 29 -12.2 10
12:25 1011 29.85 840 24.81 4.2 39.6 30 -11.7 10.9
12:30 1010 29.83 840 24.81 3.8 38.8 30 -12.2 10
12:35 1010 29.83 840 24.81 4.6 40.3 28 -12.3 9.9
12:40 1010 29.83 840 24.81 4.7 40.5 29 -11.9 10.6
12:45 1010 29.83 840 24.81 4.9 40.8 28 -12.2 10.1
12:50 1010 29.83 840 24.81 4.8 40.6 29 -11.7 10.9
12:55 1010 29.83 839 24.78 4.5 40.1 29 -12 10.4
13:00 1010 29.83 839 24.78 5.2 41.3 28 -11.7 10.9
13:05 1010 29.83 839 24.78 5.3 41.6 28 -11.8 10.7
13:10 1010 29.83 839 24.78 5 41.1 29 -11.5 11.4
13:15 1010 29.83 839 24.78 5.1 41.2 29 -11.7 10.9
13:20 1010 29.83 839 24.78 4.6 40.3 30 -11.4 11.4
13:25 1010 29.83 839 24.78 4.2 39.6 32 -11.1 12.1
13:30 1010 29.83 839 24.78 4.5 40 32 -11 12.1
13:35 1010 29.83 839 24.78 4.7 40.4 32 -10.8 12.6
13:40 1010 29.83 839 24.78 4.9 40.7 32 -10.6 12.9
13:45 1010 29.83 839 24.78 4.9 40.7 32 -10.5 13.1
13:50 1010 29.83 839 24.78 4.6 40.4 33 -10.5 13.2
13:55 1010 29.83 839 24.78 4.5 40.1 32 -10.8 12.6
14:00 1009 29.8 839 24.78 4.3 39.7 33 -10.6 13
14:05 1009 29.8 839 24.78 4.6 40.2 33 -10.5 13.2
14:10 1009 29.8 839 24.78 5 41 32 -10.5 13.2
14:15 1009 29.8 839 24.78 5 40.9 32 -10.4 13.2
14:20 1009 29.8 839 24.78 5.3 41.5 32 -10.2 13.7
14:25 1009 29.8 838 24.75 5.3 41.6 32 -10.1 13.8
14:30 1009 29.8 838 24.75 5.2 41.3 32 -10.2 13.6
14:35 1009 29.8 838 24.75 5.1 41.1 32 -10.2 13.7
14:40 1009 29.8 838 24.75 4.9 40.8 33 -10.1 13.8
14:45 1009 29.8 838 24.75 5.1 41.1 33 -10 14.1
14:50 1009 29.8 838 24.75 4.8 40.6 34 -9.8 14.3
14:55 1009 29.8 838 24.75 4.5 40.2 35 -9.7 14.5
15:00 1009 29.8 839 24.78 4.6 40.3 35 -9.7 14.5
15:05 1009 29.8 839 24.78 4.6 40.2 34 -10 14
15:10 1009 29.8 839 24.78 4.5 40.2 35 -9.8 14.4
15:15 1009 29.8 839 24.78 4.2 39.6 36 -9.4 15
15:20 1009 29.8 839 24.78 4.3 39.7 36 -9.5 14.9
15:25 1009 29.8 839 24.78 4.1 39.4 35 -9.9 14.1
15:30 1009 29.8 838 24.75 3.8 38.9 38 -9.2 15.4
15:35 1009 29.8 838 24.75 3.8 38.8 38 -9.2 15.5
15:40 1009 29.8 838 24.75 3.6 38.5 40 -8.9 16.1
15:45 1009 29.8 838 24.75 3.6 38.4 40 -8.7 16.3
15:50 1009 29.8 838 24.75 3.8 38.9 38 -9.2 15.4
15:55 1009 29.8 838 24.75 3.8 38.8 39 -9 15.8
16:00 1009 29.8 838 24.75 3.7 38.7 41 -8.4 16.8
16:05 1009 29.8 839 24.78 3.6 38.5 42 -8.2 17.3
16:10 1009 29.8 838 24.75 3.6 38.4 41 -8.4 16.9
16:15 1009 29.8 838 24.75 3.6 38.4 44 -7.6 18.3
16:20 1009 29.8 838 24.75 3.5 38.2 42 -8.4 16.9
16:25 1009 29.8 838 24.75 3.5 38.3 41 -8.4 16.9
16:30 1009 29.8 838 24.75 3.5 38.3 41 -8.6 16.5
16:35 1009 29.8 838 24.75 3.5 38.3 42 -8.3 17
16:40 1009 29.8 838 24.75 3.7 38.7 39 -8.9 16
16:45 1009 29.8 838 24.75 3.6 38.4 41 -8.4 16.8
16:50 1009 29.8 838 24.75 3.6 38.5 41 -8.4 16.8
16:55 1009 29.8 838 24.75 3.8 38.9 40 -8.6 16.5
17:00 1009 29.8 838 24.75 3.9 39 39 -8.7 16.4
17:05 1009 29.8 838 24.75 3.9 39 39 -9 15.9
17:10 1009 29.8 838 24.75 3.8 38.8 39 -9 15.7
17:15 1009 29.8 838 24.75 3.7 38.6 39 -9 15.8
17:20 1009 29.8 838 24.75 3.8 38.8 39 -9.1 15.7
17:25 1009 29.8 838 24.75 3.8 38.9 38 -9.1 15.6
17:30 1009 29.8 838 24.75 3.5 38.4 40 -8.9 16
17:35 1009 29.8 838 24.75 3.4 38.2 40 -9.1 15.7
17:40 1009 29.8 838 24.75 3.3 38 38 -9.7 14.5
17:45 1009 29.8 838 24.75 3.4 38.2 38 -9.6 14.6
17:50 1009 29.8 838 24.75 3.7 38.6 37 -9.8 14.3
17:55 1009 29.8 838 24.75 3.9 39.1 37 -9.4 15.1
18:00 1009 29.8 838 24.75 3.8 38.8 37 -9.5 15
18:05 1009 29.8 838 24.75 3.5 38.3 37 -9.7 14.5
18:10 1009 29.8 838 24.75 3.4 38.1 36 -10.2 13.7
18:15 1009 29.8 838 24.75 3.4 38 37 -9.9 14.1
18:20 1009 29.8 838 24.75 3.4 38.1 38 -9.6 14.7
18:25 1008 29.77 838 24.75 3.2 37.7 38 -9.7 14.5
18:30 1008 29.77 838 24.75 3.2 37.7 39 -9.6 14.7
18:35 1008 29.77 838 24.75 3.1 37.6 39 -9.4 15
18:40 1009 29.8 838 24.75 3 37.3 39 -9.6 14.8
18:45 1009 29.8 838 24.75 3 37.4 40 -9.2 15.5
18:50 1009 29.8 838 24.75 2.7 36.9 41 -9.3 15.2
18:55 1009 29.8 838 24.75 2.7 36.8 41 -9.2 15.5
19:00 1009 29.8 838 24.75 2.6 36.7 42 -9.1 15.7
19:05 1009 29.8 838 24.75 2.6 36.7 41 -9.5 14.9
19:10 1009 29.8 838 24.75 2.6 36.7 42 -9.2 15.5
19:15 1009 29.8 838 24.75 2.6 36.7 44 -8.4 16.9
19:20 1009 29.8 838 24.75 2.4 36.3 45 -8.3 17.1
19:25 1009 29.8 838 24.75 2.2 35.9 44 -8.9 15.9
19:30 1009 29.8 838 24.75 2.3 36.2 44 -8.7 16.3
19:35 1009 29.8 838 24.75 2.3 36.2 44 -8.7 16.3
19:40 1009 29.8 838 24.75 2.3 36.1 44 -8.6 16.5
19:45 1009 29.8 838 24.75 2.2 35.9 45 -8.7 16.3
19:50 1009 29.8 838 24.75 2.2 35.9 45 -8.6 16.6
19:55 1009 29.8 838 24.75 2.1 35.9 46 -8.4 16.9
20:00 1009 29.8 838 24.75 2 35.6 45 -8.6 16.5
20:05 1009 29.8 838 24.75 2 35.6 46 -8.4 16.8
20:10 1009 29.8 838 24.75 1.9 35.4 46 -8.4 16.8
20:15 1009 29.8 838 24.75 1.9 35.4 47 -8.4 16.9
20:20 1009 29.8 838 24.75 1.8 35.3 47 -8.2 17.2
20:25 1009 29.8 838 24.75 1.7 35 48 -8.1 17.3
20:30 1009 29.8 838 24.75 1.6 34.8 50 -7.7 18.1
20:35 1009 29.8 838 24.75 1.4 34.5 51 -7.7 18.1
20:40 1009 29.8 838 24.75 1.3 34.3 50 -8 17.5
20:45 1009 29.8 838 24.75 1.3 34.3 50 -8 17.7
20:50 1009 29.8 838 24.75 1.2 34.2 51 -7.9 17.8
20:55 1009 29.8 838 24.75 1.3 34.3 51 -7.8 17.9
21:00 1009 29.8 838 24.75 1.2 34.1 51 -7.9 17.7
21:05 1009 29.8 838 24.75 1.2 34.2 50 -8.1 17.4
21:10 1009 29.8 838 24.75 1.2 34.1 51 -8 17.6
21:15 1009 29.8 838 24.75 1.1 34.1 51 -8 17.6
21:20 1009 29.8 838 24.75 1.2 34.1 50 -8.2 17.2
21:25 1009 29.8 838 24.75 1.2 34.2 49 -8.3 17
21:30 1009 29.8 838 24.75 1.3 34.3 48 -8.4 16.9
21:35 1009 29.8 838 24.75 1.3 34.3 49 -8.3 17.1
21:40 1009 29.8 838 24.75 1.3 34.3 49 -8.3 17
21:45 1009 29.8 838 24.75 1.3 34.3 49 -8.2 17.3
21:50 1009 29.8 838 24.75 1.1 33.9 51 -8 17.5
21:55 1008 29.77 838 24.75 1 33.7 51 -8.1 17.5
22:00 1008 29.77 838 24.75 1.1 34 49 -8.5 16.6
22:05 1008 29.77 838 24.75 1.3 34.4 48 -8.6 16.4
22:10 1008 29.77 838 24.75 1.4 34.5 48 -8.3 17
22:15 1008 29.77 838 24.75 1.3 34.3 48 -8.5 16.7
22:20 1008 29.77 838 24.75 1.4 34.5 47 -8.7 16.3
22:25 1008 29.77 838 24.75 1.3 34.4 49 -8.3 17
22:30 1008 29.77 838 24.75 1.1 34 48 -8.6 16.6
22:35 1008 29.77 837 24.72 1.1 34 49 -8.5 16.7
22:40 1008 29.77 837 24.72 1.1 34 49 -8.4 16.9
22:45 1008 29.77 838 24.75 1.1 33.9 49 -8.4 16.8
22:50 1008 29.77 838 24.75 1 33.8 49 -8.6 16.6
22:55 1008 29.77 838 24.75 1 33.9 49 -8.5 16.7
23:00 1008 29.77 838 24.75 1.2 34.1 48 -8.6 16.6
23:05 1008 29.77 838 24.75 1.1 34 49 -8.4 16.8
23:10 1008 29.77 838 24.75 1.1 33.9 49 -8.4 16.9
23:15 1008 29.77 838 24.75 1 33.9 50 -8.2 17.2
23:20 1008 29.77 838 24.75 1 33.8 50 -8.2 17.2
23:25 1008 29.77 838 24.75 1 33.8 50 -8.2 17.2
23:30 1008 29.77 838 24.75 0.9 33.7 51 -8.2 17.3
23:35 1008 29.77 838 24.75 1 33.8 49 -8.6 16.5
23:40 1008 29.77 837 24.72 1.2 34.2 49 -8.3 17
23:45 1008 29.77 837 24.72 1.2 34.1 48 -8.6 16.6
23:50 1008 29.77 837 24.72 1 33.8 49 -8.6 16.6
23:55 1008 29.77 837 24.72 0.9 33.7 49 -8.6 16.4
24:00 1008 29.77 837 24.72 0.8 33.5 50 -8.5 16.7